Time;durP1;ratioP1;P1;durP2;ratioP2;P2;SDS_P1;SDS_P2;PMS_P1;PMS_P2;Temp;Humidity;BMP_temperature;BMP_pressure;BME280_temperature;BME280_humidity;BME280_pressure;Samples;Min_cycle;Max_cycle;Signal;HPM_P1;HPM_P2
2022/01/17 00:01:16;;;;;;;0.20;0.20;;;;;;;;;;5072094;28;20039;-61
2022/01/17 00:03:42;;;;;;;0.10;0.10;;;;;;;;;;5074775;28;20368;-61
2022/01/17 00:06:07;;;;;;;0.20;0.20;;;;;;;;;;5057975;28;20119;-63
2022/01/17 00:08:33;;;;;;;0.20;0.20;;;;;;;;;;5092534;28;20039;-60
2022/01/17 00:10:59;;;;;;;0.15;0.15;;;;;;;;;;5092641;28;20137;-61
2022/01/17 00:13:27;;;;;;;0.20;0.20;;;;;;;;;;5091931;28;20028;-61
2022/01/17 00:16:15;;;;;;;0.10;0.10;;;;;;;;;;5057807;28;20068;-61
2022/01/17 00:21:13;;;;;;;0.10;0.10;;;;;;;;;;5092680;28;20063;-61
2022/01/17 00:23:38;;;;;;;0.10;0.10;;;;;;;;;;5092445;28;20415;-60
2022/01/17 00:26:04;;;;;;;0.10;0.10;;;;;;;;;;5092325;28;20042;-62
2022/01/17 00:28:30;;;;;;;0.10;0.10;;;;;;;;;;5092301;28;20027;-63
2022/01/17 00:30:55;;;;;;;0.10;0.10;;;;;;;;;;5092169;28;20130;-62
2022/01/17 00:33:20;;;;;;;0.10;0.10;;;;;;;;;;5092447;28;20028;-62
2022/01/17 00:35:46;;;;;;;0.47;0.43;;;;;;;;;;5092767;28;20024;-62
2022/01/17 00:38:17;;;;;;;0.10;0.10;;;;;;;;;;5092438;28;20024;-62
2022/01/17 00:40:48;;;;;;;0.10;0.10;;;;;;;;;;5057914;28;20391;-61
2022/01/17 00:43:19;;;;;;;0.20;0.20;;;;;;;;;;5057821;28;20032;-61
2022/01/17 00:45:45;;;;;;;0.10;0.10;;;;;;;;;;5074476;28;20036;-61
2022/01/17 00:48:11;;;;;;;0.52;0.52;;;;;;;;;;5092233;28;20051;-61
2022/01/17 00:50:40;;;;;;;0.10;0.10;;;;;;;;;;5074126;28;20036;-61
2022/01/17 00:53:07;;;;;;;0.40;0.40;;;;;;;;;;5057435;28;20398;-62
2022/01/17 00:55:33;;;;;;;0.10;0.10;;;;;;;;;;5092195;28;20025;-61
2022/01/17 00:57:59;;;;;;;0.10;0.10;;;;;;;;;;5091882;28;20438;-61
2022/01/17 01:00:25;;;;;;;0.10;0.10;;;;;;;;;;5057525;28;20115;-61
2022/01/17 01:02:51;;;;;;;0.10;0.10;;;;;;;;;;5074050;28;20113;-61
2022/01/17 01:05:19;;;;;;;0.10;0.10;;;;;;;;;;5092089;28;20379;-60
2022/01/17 01:07:45;;;;;;;0.32;0.32;;;;;;;;;;5091903;28;20047;-61
2022/01/17 01:10:11;;;;;;;0.10;0.10;;;;;;;;;;5091898;28;20495;-62
2022/01/17 01:12:41;;;;;;;0.10;0.10;;;;;;;;;;5056981;28;20066;-62
2022/01/17 01:15:11;;;;;;;0.10;0.10;;;;;;;;;;5073927;28;20081;-60
2022/01/17 01:17:48;;;;;;;1.17;1.17;;;;;;;;;;5057248;28;20035;-61
2022/01/17 01:20:32;;;;;;;0.10;0.10;;;;;;;;;;5057073;28;20097;-60
2022/01/17 01:28:26;;;;;;;0.10;0.10;;;;;;;;;;5095089;28;20453;-63
2022/01/17 01:30:54;;;;;;;1.73;1.73;;;;;;;;;;5094290;28;20032;-61
2022/01/17 01:33:55;;;;;;;0.10;0.10;;;;;;;;;;5077010;28;20115;-62
2022/01/17 01:36:17;;;;;;;0.10;0.10;;;;;;;;;;5091911;28;20119;-62
2022/01/17 01:38:43;;;;;;;0.28;0.28;;;;;;;;;;5095085;28;20458;-60
2022/01/17 01:41:09;;;;;;;0.10;0.10;;;;;;;;;;5076980;28;20139;-61
2022/01/17 01:43:34;;;;;;;0.10;0.10;;;;;;;;;;5095080;28;20476;-61
2022/01/17 01:46:01;;;;;;;0.13;0.13;;;;;;;;;;5094856;28;20036;-61
2022/01/17 01:48:29;;;;;;;0.10;0.10;;;;;;;;;;5059934;28;20117;-61
2022/01/17 01:50:54;;;;;;;0.13;0.13;;;;;;;;;;5060090;28;20383;-61
2022/01/17 01:53:22;;;;;;;0.10;0.10;;;;;;;;;;5094667;28;20036;-62
2022/01/17 01:55:50;;;;;;;0.10;0.10;;;;;;;;;;5059990;28;20032;-61
2022/01/17 01:58:15;;;;;;;0.32;0.32;;;;;;;;;;5060003;28;20055;-61
2022/01/17 02:00:41;;;;;;;0.10;0.10;;;;;;;;;;5094520;28;20067;-63
2022/01/17 02:03:07;;;;;;;0.10;0.10;;;;;;;;;;5059832;28;20059;-61
2022/01/17 02:05:32;;;;;;;0.10;0.10;;;;;;;;;;5094626;28;20463;-61
2022/01/17 02:07:57;;;;;;;0.13;0.13;;;;;;;;;;5076576;28;20059;-60
2022/01/17 02:10:23;;;;;;;0.10;0.10;;;;;;;;;;5094685;28;20372;-63
2022/01/17 02:12:48;;;;;;;0.10;0.10;;;;;;;;;;5094421;28;20032;-61
2022/01/17 02:15:15;;;;;;;0.10;0.10;;;;;;;;;;5094409;28;20036;-62
2022/01/17 02:17:45;;;;;;;0.10;0.10;;;;;;;;;;5059483;28;20464;-62
2022/01/17 02:20:20;;;;;;;0.20;0.20;;;;;;;;;;5059740;28;20032;-62
2022/01/17 02:22:46;;;;;;;0.10;0.10;;;;;;;;;;5094486;28;20525;-61
2022/01/17 02:25:11;;;;;;;0.10;0.10;;;;;;;;;;5076267;28;20044;-62
2022/01/17 02:27:37;;;;;;;0.10;0.10;;;;;;;;;;5094223;28;20036;-62
2022/01/17 02:30:03;;;;;;;0.10;0.10;;;;;;;;;;5075997;28;20024;-61
2022/01/17 02:32:30;;;;;;;0.10;0.10;;;;;;;;;;5059391;28;20034;-61
2022/01/17 02:35:13;;;;;;;0.10;0.10;;;;;;;;;;5075875;28;20353;-61
2022/01/17 02:37:38;;;;;;;0.10;0.10;;;;;;;;;;5059530;28;20036;-62
2022/01/17 02:40:04;;;;;;;0.10;0.10;;;;;;;;;;5076101;28;20031;-62
2022/01/17 02:42:30;;;;;;;0.10;0.10;;;;;;;;;;5075864;28;20371;-62
2022/01/17 02:45:05;;;;;;;0.10;0.10;;;;;;;;;;5059339;28;20498;-62
2022/01/17 02:47:30;;;;;;;0.15;0.15;;;;;;;;;;5075919;28;20036;-61
2022/01/17 02:49:56;;;;;;;0.20;0.20;;;;;;;;;;5059228;28;20028;-61
2022/01/17 02:52:23;;;;;;;0.10;0.10;;;;;;;;;;5093903;28;20527;-60
2022/01/17 02:54:48;;;;;;;0.10;0.10;;;;;;;;;;5075701;28;20533;-61
2022/01/17 02:57:14;;;;;;;0.10;0.10;;;;;;;;;;5093613;28;20085;-61
2022/01/17 02:59:39;;;;;;;0.10;0.10;;;;;;;;;;5093681;28;20058;-61
2022/01/17 03:02:05;;;;;;;0.10;0.10;;;;;;;;;;5094217;28;20383;-61
2022/01/17 03:04:31;;;;;;;0.10;0.10;;;;;;;;;;5075929;28;20031;-61
2022/01/17 03:06:56;;;;;;;0.10;0.10;;;;;;;;;;5058915;28;20089;-60
2022/01/17 03:09:23;;;;;;;0.20;0.20;;;;;;;;;;5093363;28;20040;-61
2022/01/17 03:11:49;;;;;;;0.20;0.20;;;;;;;;;;5093737;28;20024;-62
2022/01/17 03:14:14;;;;;;;0.10;0.10;;;;;;;;;;5058875;28;20036;-61
2022/01/17 03:16:46;;;;;;;0.10;0.10;;;;;;;;;;5093911;28;20072;-61
2022/01/17 03:19:11;;;;;;;0.10;0.10;;;;;;;;;;5075406;28;20039;-61
2022/01/17 03:21:37;;;;;;;0.10;0.10;;;;;;;;;;5093557;28;20024;-63
2022/01/17 03:24:03;;;;;;;0.10;0.10;;;;;;;;;;5075381;28;20060;-61
2022/01/17 03:26:30;;;;;;;0.10;0.10;;;;;;;;;;5093455;28;20081;-62
2022/01/17 03:28:59;;;;;;;0.10;0.10;;;;;;;;;;5075390;28;20039;-61
2022/01/17 03:31:25;;;;;;;0.20;0.20;;;;;;;;;;5058578;28;20053;-62
2022/01/17 03:33:50;;;;;;;0.20;0.20;;;;;;;;;;5093266;28;20036;-61
2022/01/17 03:36:16;;;;;;;0.10;0.10;;;;;;;;;;5093295;28;20020;-61
2022/01/17 03:38:42;;;;;;;0.10;0.10;;;;;;;;;;5093209;28;20062;-62
2022/01/17 03:41:08;;;;;;;0.10;0.10;;;;;;;;;;5075107;28;20455;-61
2022/01/17 03:43:34;;;;;;;0.10;0.10;;;;;;;;;;5058429;28;20071;-60
2022/01/17 03:46:00;;;;;;;0.10;0.10;;;;;;;;;;5074970;28;20032;-60
2022/01/17 03:48:26;;;;;;;0.20;0.20;;;;;;;;;;5092918;28;20043;-61
2022/01/17 03:50:52;;;;;;;0.17;0.17;;;;;;;;;;5074823;28;20028;-60
2022/01/17 03:53:17;;;;;;;0.17;0.17;;;;;;;;;;5074770;28;20012;-61
2022/01/17 03:55:43;;;;;;;0.10;0.10;;;;;;;;;;5092989;28;20043;-60
2022/01/17 03:58:08;;;;;;;0.10;0.10;;;;;;;;;;5074682;28;20081;-62
2022/01/17 04:00:36;;;;;;;0.15;0.15;;;;;;;;;;5093021;28;20379;-60
2022/01/17 04:03:02;;;;;;;0.10;0.10;;;;;;;;;;5081105;28;20056;-61
2022/01/17 04:05:27;;;;;;;3.95;3.67;;;;;;;;;;5068512;28;20523;-61
2022/01/17 04:07:53;;;;;;;0.10;0.10;;;;;;;;;;5068397;28;20032;-62
2022/01/17 04:10:18;;;;;;;0.13;0.13;;;;;;;;;;5050695;28;20119;-61
2022/01/17 04:12:44;;;;;;;0.10;0.10;;;;;;;;;;5033983;28;20055;-62
2022/01/17 04:15:11;;;;;;;0.10;0.10;;;;;;;;;;5050353;28;20025;-62
2022/01/17 04:17:36;;;;;;;0.10;0.10;;;;;;;;;;5068701;28;20114;-62
2022/01/17 04:20:07;;;;;;;0.20;0.20;;;;;;;;;;5050770;28;20071;-62
2022/01/17 04:22:36;;;;;;;0.20;0.20;;;;;;;;;;5033788;28;20492;-63
2022/01/17 04:25:02;;;;;;;0.20;0.20;;;;;;;;;;5050283;28;20036;-62
2022/01/17 04:27:28;;;;;;;0.10;0.10;;;;;;;;;;5033852;28;20029;-61
2022/01/17 04:29:53;;;;;;;0.38;0.38;;;;;;;;;;5068412;28;20490;-62
2022/01/17 04:32:19;;;;;;;0.10;0.10;;;;;;;;;;5068230;28;20028;-61
2022/01/17 04:34:44;;;;;;;0.10;0.10;;;;;;;;;;5068096;28;20027;-61
2022/01/17 04:37:09;;;;;;;0.10;0.10;;;;;;;;;;5068372;28;20072;-62
2022/01/17 04:39:35;;;;;;;0.10;0.10;;;;;;;;;;5067997;28;20032;-62
2022/01/17 04:42:09;;;;;;;0.10;0.10;;;;;;;;;;5033821;28;20027;-64
2022/01/17 04:47:18;;;;;;;0.10;0.10;;;;;;;;;;5068247;28;20043;-63
2022/01/17 04:49:44;;;;;;;0.10;0.10;;;;;;;;;;5068061;28;20032;-61
2022/01/17 04:52:13;;;;;;;0.10;0.10;;;;;;;;;;5067733;28;20036;-67
2022/01/17 04:54:43;;;;;;;0.10;0.10;;;;;;;;;;5050142;28;20111;-61
2022/01/17 04:57:09;;;;;;;0.73;0.73;;;;;;;;;;5033679;28;20036;-61
2022/01/17 04:59:35;;;;;;;0.10;0.10;;;;;;;;;;5070608;28;20553;-61
2022/01/17 05:02:01;;;;;;;0.10;0.10;;;;;;;;;;5053778;28;20037;-60
2022/01/17 05:04:26;;;;;;;0.10;0.10;;;;;;;;;;5053619;28;20038;-62
2022/01/17 05:06:52;;;;;;;0.13;0.13;;;;;;;;;;5071102;28;20742;-61
2022/01/17 05:09:17;;;;;;;0.20;0.20;;;;;;;;;;5071275;28;20108;-60
2022/01/17 05:11:43;;;;;;;0.10;0.10;;;;;;;;;;5053410;28;20047;-61
2022/01/17 05:14:09;;;;;;;0.10;0.10;;;;;;;;;;5053263;28;20067;-61
2022/01/17 05:16:40;;;;;;;0.10;0.10;;;;;;;;;;5071294;28;20047;-66
2022/01/17 05:21:50;;;;;;;0.13;0.13;;;;;;;;;;5053674;28;20045;-62
2022/01/17 05:24:16;;;;;;;0.10;0.10;;;;;;;;;;5071213;28;20033;-61
2022/01/17 05:26:41;;;;;;;0.20;0.20;;;;;;;;;;5052860;28;20123;-63
2022/01/17 05:29:07;;;;;;;0.20;0.20;;;;;;;;;;5071318;28;20037;-62
2022/01/17 05:31:32;;;;;;;0.10;0.10;;;;;;;;;;5071198;28;20043;-61
2022/01/17 05:33:57;;;;;;;0.20;0.20;;;;;;;;;;5070888;28;20052;-61
2022/01/17 05:36:23;;;;;;;0.10;0.10;;;;;;;;;;5036081;28;20033;-63
2022/01/17 05:38:48;;;;;;;0.10;0.10;;;;;;;;;;5071057;28;20024;-61
2022/01/17 05:41:14;;;;;;;0.10;0.10;;;;;;;;;;5071144;28;20036;-63
2022/01/17 05:43:39;;;;;;;0.10;0.10;;;;;;;;;;5071423;28;20036;-61
2022/01/17 05:46:05;;;;;;;0.55;0.55;;;;;;;;;;5070649;28;20387;-63
2022/01/17 05:48:30;;;;;;;0.20;0.20;;;;;;;;;;5052437;28;20492;-61
2022/01/17 05:50:55;;;;;;;0.10;0.10;;;;;;;;;;5070468;28;20048;-62
2022/01/17 05:53:21;;;;;;;0.20;0.20;;;;;;;;;;5052710;28;20560;-66
2022/01/17 05:55:46;;;;;;;0.10;0.10;;;;;;;;;;5070678;28;20032;-61
2022/01/17 05:58:12;;;;;;;0.10;0.10;;;;;;;;;;5070545;28;20126;-62
2022/01/17 06:00:45;;;;;;;0.10;0.10;;;;;;;;;;5052581;28;20024;-61
2022/01/17 06:03:12;;;;;;;0.13;0.13;;;;;;;;;;5053330;28;20090;-62
2022/01/17 06:05:38;;;;;;;0.10;0.10;;;;;;;;;;5035739;28;20036;-66
2022/01/17 06:08:04;;;;;;;0.10;0.10;;;;;;;;;;5070534;28;20365;-62
2022/01/17 06:10:29;;;;;;;0.10;0.10;;;;;;;;;;5051268;28;20391;-62
2022/01/17 06:12:55;;;;;;;0.10;0.10;;;;;;;;;;5052506;28;20082;-61
2022/01/17 06:15:21;;;;;;;0.10;0.10;;;;;;;;;;5070217;28;20040;-62
2022/01/17 06:17:46;;;;;;;0.10;0.10;;;;;;;;;;5070348;28;20025;-62
2022/01/17 06:20:12;;;;;;;0.17;0.17;;;;;;;;;;5035719;28;20123;-62
2022/01/17 06:22:37;;;;;;;0.10;0.10;;;;;;;;;;5052562;28;20090;-62
2022/01/17 06:25:03;;;;;;;0.10;0.10;;;;;;;;;;5070440;28;20386;-62
2022/01/17 06:27:29;;;;;;;0.10;0.10;;;;;;;;;;5070181;28;20483;-62
2022/01/17 06:29:54;;;;;;;1.95;1.85;;;;;;;;;;5070077;28;20030;-60
2022/01/17 06:32:20;;;;;;;0.10;0.10;;;;;;;;;;5070435;28;20045;-60
2022/01/17 06:34:45;;;;;;;0.10;0.10;;;;;;;;;;5069756;28;20093;-60
2022/01/17 06:37:10;;;;;;;0.10;0.10;;;;;;;;;;5069909;28;20108;-62
2022/01/17 06:39:36;;;;;;;0.20;0.20;;;;;;;;;;5070310;28;20554;-64
2022/01/17 06:42:01;;;;;;;0.30;0.30;;;;;;;;;;5069867;28;20074;-64
2022/01/17 06:44:27;;;;;;;0.90;0.90;;;;;;;;;;5070025;28;20025;-62
2022/01/17 06:46:52;;;;;;;0.20;0.20;;;;;;;;;;5069777;28;20112;-61
2022/01/17 06:49:18;;;;;;;0.10;0.10;;;;;;;;;;5069615;28;20066;-63
2022/01/17 06:51:43;;;;;;;0.43;0.43;;;;;;;;;;5070143;28;20365;-64
2022/01/17 06:54:09;;;;;;;0.20;0.20;;;;;;;;;;5069898;28;20753;-62
2022/01/17 06:56:34;;;;;;;0.20;0.20;;;;;;;;;;5051925;28;20043;-62
2022/01/17 06:58:59;;;;;;;31.05;5.78;;;;;;;;;;5069645;28;20043;-63
2022/01/17 07:01:25;;;;;;;0.25;0.25;;;;;;;;;;5051723;28;20171;-66
2022/01/17 07:03:51;;;;;;;0.10;0.10;;;;;;;;;;5069646;28;20064;-62
2022/01/17 07:06:16;;;;;;;0.20;0.20;;;;;;;;;;5034862;28;20127;-63
2022/01/17 07:08:43;;;;;;;0.10;0.10;;;;;;;;;;5051183;28;20090;-62
2022/01/17 07:11:09;;;;;;;0.10;0.10;;;;;;;;;;5069468;28;20484;-62
2022/01/17 07:13:34;;;;;;;0.20;0.20;;;;;;;;;;5069788;28;20063;-67
2022/01/17 07:16:00;;;;;;;0.20;0.20;;;;;;;;;;5069441;28;20031;-61
2022/01/17 07:18:25;;;;;;;0.10;0.10;;;;;;;;;;5069458;28;20090;-64
2022/01/17 07:20:50;;;;;;;0.20;0.20;;;;;;;;;;5034304;28;20063;-62
2022/01/17 07:23:16;;;;;;;0.20;0.20;;;;;;;;;;5069108;28;20432;-62
2022/01/17 07:25:42;;;;;;;0.20;0.20;;;;;;;;;;5069389;28;20040;-62
2022/01/17 07:28:08;;;;;;;0.30;0.30;;;;;;;;;;5068945;28;20028;-63
2022/01/17 07:30:34;;;;;;;0.20;0.20;;;;;;;;;;5069239;28;20040;-62
2022/01/17 07:32:59;;;;;;;0.20;0.20;;;;;;;;;;5035020;28;20024;-61
2022/01/17 07:35:25;;;;;;;0.30;0.30;;;;;;;;;;5068936;28;20040;-62
2022/01/17 07:37:50;;;;;;;0.20;0.20;;;;;;;;;;5068973;28;20029;-62
2022/01/17 07:40:16;;;;;;;0.10;0.10;;;;;;;;;;5069075;28;20041;-67
2022/01/17 07:42:41;;;;;;;0.73;0.73;;;;;;;;;;5068763;28;20027;-62
2022/01/17 07:45:12;;;;;;;1.10;1.08;;;;;;;;;;5068828;28;20032;-62
2022/01/17 07:50:10;;;;;;;0.20;0.20;;;;;;;;;;5088128;28;20039;-62
2022/01/17 07:52:36;;;;;;;0.20;0.20;;;;;;;;;;5087898;28;20610;-62
2022/01/17 07:55:02;;;;;;;0.15;0.15;;;;;;;;;;5089409;28;20115;-62
2022/01/17 07:57:28;;;;;;;0.43;0.43;;;;;;;;;;5071017;28;20059;-68
2022/01/17 07:59:53;;;;;;;0.20;0.20;;;;;;;;;;5089083;28;20064;-62
2022/01/17 08:02:19;;;;;;;0.30;0.30;;;;;;;;;;5089322;28;20040;-63
2022/01/17 08:04:44;;;;;;;0.28;0.28;;;;;;;;;;5070354;28;20551;-62
2022/01/17 08:07:10;;;;;;;4.05;3.58;;;;;;;;;;5088996;28;20146;-66
2022/01/17 08:09:35;;;;;;;0.20;0.20;;;;;;;;;;5088936;28;20506;-61
2022/01/17 08:12:02;;;;;;;2.75;2.28;;;;;;;;;;5088799;28;20475;-62
2022/01/17 08:14:28;;;;;;;0.30;0.30;;;;;;;;;;5070455;28;20119;-63
2022/01/17 08:16:54;;;;;;;0.20;0.20;;;;;;;;;;5088290;28;20387;-62
2022/01/17 08:19:20;;;;;;;0.30;0.30;;;;;;;;;;5070775;28;20073;-62
2022/01/17 08:21:47;;;;;;;0.30;0.30;;;;;;;;;;5088981;28;20099;-61
2022/01/17 08:24:13;;;;;;;1.40;1.35;;;;;;;;;;5070972;28;20040;-61
2022/01/17 08:26:42;;;;;;;0.47;0.47;;;;;;;;;;5088576;28;20032;-62
2022/01/17 08:29:08;;;;;;;;;;;;;;;;;;5080414;28;20040;-69
2022/01/17 08:31:33;;;;;;;1.60;1.03;;;;;;;;;;5068636;28;19965;-70
2022/01/17 08:33:58;;;;;;;0.30;0.30;;;;;;;;;;5032963;28;20551;-70
2022/01/17 08:36:24;;;;;;;0.40;0.40;;;;;;;;;;5068346;28;20020;-71
2022/01/17 08:38:49;;;;;;;0.40;0.40;;;;;;;;;;5068178;28;20066;-71
2022/01/17 08:41:16;;;;;;;0.90;0.90;;;;;;;;;;5068409;28;20107;-70
2022/01/17 08:43:42;;;;;;;0.55;0.55;;;;;;;;;;5033553;28;20032;-70
2022/01/17 08:46:07;;;;;;;0.73;0.73;;;;;;;;;;5050301;28;20032;-71
2022/01/17 08:48:33;;;;;;;0.30;0.30;;;;;;;;;;5050328;28;20039;-70
2022/01/17 08:50:58;;;;;;;0.80;0.75;;;;;;;;;;5070017;28;20110;-71
2022/01/17 08:53:24;;;;;;;3.30;3.00;;;;;;;;;;5068612;28;20051;-70
2022/01/17 08:55:50;;;;;;;0.47;0.47;;;;;;;;;;5077831;28;20083;-70
2022/01/17 08:58:16;;;;;;;2.03;1.38;;;;;;;;;;5065887;28;20069;-70
2022/01/17 09:00:43;;;;;;;2.63;2.38;;;;;;;;;;5031271;28;20060;-71
2022/01/17 09:03:10;;;;;;;1.38;1.10;;;;;;;;;;5085098;28;20043;-72
2022/01/17 09:05:36;;;;;;;0.40;0.40;;;;;;;;;;5051223;28;20028;-71
2022/01/17 09:08:02;;;;;;;0.47;0.47;;;;;;;;;;5042522;28;20046;-71
2022/01/17 09:10:28;;;;;;;3.20;1.25;;;;;;;;;;5065985;28;20096;-70
2022/01/17 09:12:54;;;;;;;0.45;0.45;;;;;;;;;;5030838;28;20032;-70
2022/01/17 09:15:20;;;;;;;0.38;0.38;;;;;;;;;;5081325;28;20039;-70
2022/01/17 09:17:45;;;;;;;0.30;0.30;;;;;;;;;;5067516;28;20146;-71
2022/01/17 09:20:11;;;;;;;3.63;2.22;;;;;;;;;;5051815;28;20035;-70
2022/01/17 09:22:37;;;;;;;0.30;0.30;;;;;;;;;;5087830;28;20055;-70
2022/01/17 09:25:06;;;;;;;0.85;0.85;;;;;;;;;;5069611;28;20498;-70
2022/01/17 09:27:32;;;;;;;0.30;0.30;;;;;;;;;;5069165;28;20058;-69
2022/01/17 09:29:58;;;;;;;0.50;0.50;;;;;;;;;;5087717;28;20460;-69
2022/01/17 09:32:23;;;;;;;0.57;0.57;;;;;;;;;;5087537;28;20043;-71
2022/01/17 09:34:49;;;;;;;1.38;0.40;;;;;;;;;;5087526;28;20111;-69
2022/01/17 09:37:15;;;;;;;1.05;0.85;;;;;;;;;;5087472;28;20047;-70
2022/01/17 09:39:40;;;;;;;0.30;0.30;;;;;;;;;;5052474;28;20031;-69
2022/01/17 09:42:06;;;;;;;0.35;0.35;;;;;;;;;;5077588;28;20036;-68
2022/01/17 09:44:33;;;;;;;1.00;0.82;;;;;;;;;;5049936;28;20074;-71
2022/01/17 09:46:58;;;;;;;1.80;1.70;;;;;;;;;;5074307;28;20024;-69
2022/01/17 09:49:33;;;;;;;0.52;0.52;;;;;;;;;;5073047;28;20042;-69
2022/01/17 09:52:06;;;;;;;0.40;0.40;;;;;;;;;;5072783;28;20036;-71
2022/01/17 09:54:35;;;;;;;1.15;1.05;;;;;;;;;;5090655;28;20415;-69
2022/01/17 09:57:06;;;;;;;0.65;0.65;;;;;;;;;;5072857;28;20403;-70
2022/01/17 09:59:31;;;;;;;0.50;0.50;;;;;;;;;;5055919;28;20063;-70
2022/01/17 10:01:57;;;;;;;0.30;0.30;;;;;;;;;;5089208;28;20520;-71
2022/01/17 10:04:23;;;;;;;0.82;0.82;;;;;;;;;;5090316;28;20097;-70
2022/01/17 10:06:55;;;;;;;1.70;1.52;;;;;;;;;;5090142;28;20032;-69
2022/01/17 10:09:24;;;;;;;0.50;0.50;;;;;;;;;;5072513;28;20028;-70
2022/01/17 10:12:05;;;;;;;4.50;1.70;;;;;;;;;;5055561;28;20032;-68
2022/01/17 10:14:35;;;;;;;4.03;1.10;;;;;;;;;;5072473;28;20399;-70
2022/01/17 10:17:05;;;;;;;3.45;2.55;;;;;;;;;;5056158;28;20059;-71
2022/01/17 10:19:31;;;;;;;4.20;3.30;;;;;;;;;;5052626;28;20037;-71
2022/01/17 10:21:59;;;;;;;0.52;0.52;;;;;;;;;;5080500;28;20054;-68
2022/01/17 10:35:16;;;;;;;1.10;1.00;;;;;;;;;;5090087;28;20044;-69
2022/01/17 10:37:54;;;;;;;0.70;0.60;;;;;;;;;;5071579;28;20123;-70
2022/01/17 10:40:19;;;;;;;1.92;0.95;;;;;;;;;;5055363;28;20036;-71
2022/01/17 10:42:47;;;;;;;2.15;1.27;;;;;;;;;;5090146;28;20424;-70
2022/01/17 10:45:17;;;;;;;0.43;0.43;;;;;;;;;;5055236;28;20040;-71
2022/01/17 10:47:43;;;;;;;2.55;1.75;;;;;;;;;;5052987;28;20562;-70
2022/01/17 10:50:14;;;;;;;0.73;0.73;;;;;;;;;;5053186;28;20042;-69
2022/01/17 10:52:44;;;;;;;0.60;0.60;;;;;;;;;;5069709;28;20028;-70
2022/01/17 10:55:13;;;;;;;0.30;0.30;;;;;;;;;;5069922;28;20043;-70
2022/01/17 10:57:40;;;;;;;1.55;1.23;;;;;;;;;;5052557;28;20055;-70
2022/01/17 11:00:10;;;;;;;2.08;1.33;;;;;;;;;;5087808;28;20032;-71
2022/01/17 11:02:36;;;;;;;0.35;0.35;;;;;;;;;;5053189;28;20028;-71
2022/01/17 11:05:06;;;;;;;0.75;0.65;;;;;;;;;;5087891;28;20357;-70
2022/01/17 11:07:37;;;;;;;0.30;0.30;;;;;;;;;;5050394;28;20040;-69
2022/01/17 11:10:07;;;;;;;4.22;1.00;;;;;;;;;;5032934;28;20040;-70
2022/01/17 11:12:34;;;;;;;5.50;0.40;;;;;;;;;;5049174;28;20079;-71
2022/01/17 11:15:00;;;;;;;0.50;0.50;;;;;;;;;;5052572;28;20430;-70
2022/01/17 11:17:35;;;;;;;0.30;0.30;;;;;;;;;;5053906;28;20036;-72
2022/01/17 11:20:07;;;;;;;0.50;0.50;;;;;;;;;;5071137;28;20070;-68
2022/01/17 11:22:39;;;;;;;0.80;0.68;;;;;;;;;;5054441;28;20035;-70
2022/01/17 11:25:06;;;;;;;0.43;0.43;;;;;;;;;;5088962;28;20039;-69
2022/01/17 11:27:32;;;;;;;0.63;0.45;;;;;;;;;;5054532;28;20123;-70
2022/01/17 11:29:58;;;;;;;0.20;0.20;;;;;;;;;;5070982;28;20463;-69
2022/01/17 11:32:24;;;;;;;0.40;0.40;;;;;;;;;;5089339;28;20035;-69
2022/01/17 11:34:50;;;;;;;0.73;0.68;;;;;;;;;;5088613;28;20020;-69
2022/01/17 11:37:16;;;;;;;0.40;0.40;;;;;;;;;;5070896;28;20422;-68
2022/01/17 11:39:46;;;;;;;0.77;0.60;;;;;;;;;;5071186;28;20084;-69
2022/01/17 11:42:27;;;;;;;2.33;1.60;;;;;;;;;;5054649;28;20077;-68
2022/01/17 11:44:53;;;;;;;3.20;3.00;;;;;;;;;;5088598;28;20044;-70
2022/01/17 11:47:38;;;;;;;0.30;0.30;;;;;;;;;;5089483;28;20028;-68
2022/01/17 11:50:22;;;;;;;1.25;1.15;;;;;;;;;;5088741;28;20496;-69
2022/01/17 11:52:48;;;;;;;4.57;1.48;;;;;;;;;;5070330;28;20040;-68
2022/01/17 11:55:33;;;;;;;0.60;0.60;;;;;;;;;;5088318;28;20036;-70
2022/01/17 11:58:18;;;;;;;0.43;0.43;;;;;;;;;;5088734;28;20028;-68
2022/01/17 12:00:44;;;;;;;2.47;1.38;;;;;;;;;;5088360;28;20682;-72
2022/01/17 12:03:17;;;;;;;2.17;2.03;;;;;;;;;;5054023;28;20031;-68
2022/01/17 12:05:42;;;;;;;0.95;0.85;;;;;;;;;;5054048;28;20067;-67
2022/01/17 12:08:09;;;;;;;1.40;1.20;;;;;;;;;;5069162;28;20077;-68
2022/01/17 12:10:42;;;;;;;0.60;0.60;;;;;;;;;;5088133;28;20031;-68
2022/01/17 12:13:11;;;;;;;0.55;0.50;;;;;;;;;;5053964;28;20089;-69
2022/01/17 12:15:54;;;;;;;2.33;1.38;;;;;;;;;;5053970;28;20028;-69
2022/01/17 12:18:26;;;;;;;0.75;0.75;;;;;;;;;;5088719;28;20030;-68
2022/01/17 12:20:52;;;;;;;3.20;1.50;;;;;;;;;;5062922;28;20051;-69
2022/01/17 12:23:25;;;;;;;2.83;0.80;;;;;;;;;;5075180;28;20040;-69
2022/01/17 12:25:51;;;;;;;1.17;1.05;;;;;;;;;;5061286;28;20032;-68
2022/01/17 12:28:16;;;;;;;3.63;1.73;;;;;;;;;;5034889;28;20044;-69
2022/01/17 12:30:47;;;;;;;0.30;0.30;;;;;;;;;;5068164;28;20028;-68
2022/01/17 12:33:34;;;;;;;0.25;0.25;;;;;;;;;;5068565;28;20058;-68
2022/01/17 12:36:04;;;;;;;8.88;0.98;;;;;;;;;;5037591;28;20080;-67
2022/01/17 12:38:36;;;;;;;3.08;1.42;;;;;;;;;;5049642;28;20040;-68
2022/01/17 12:41:03;;;;;;;0.50;0.50;;;;;;;;;;5033732;28;20037;-68
2022/01/17 12:43:33;;;;;;;0.45;0.45;;;;;;;;;;5049602;28;20051;-68
2022/01/17 12:46:00;;;;;;;0.40;0.40;;;;;;;;;;5049948;28;20418;-72
2022/01/17 12:48:26;;;;;;;0.63;0.50;;;;;;;;;;5050007;28;20037;-68
2022/01/17 12:50:54;;;;;;;0.52;0.52;;;;;;;;;;5053916;28;20064;-71
2022/01/17 12:53:24;;;;;;;1.20;0.98;;;;;;;;;;5061307;28;20111;-68
2022/01/17 12:55:50;;;;;;;0.30;0.30;;;;;;;;;;5053423;28;20028;-72
2022/01/17 12:58:18;;;;;;;0.57;0.57;;;;;;;;;;5069935;28;20036;-68
2022/01/17 13:00:46;;;;;;;0.77;0.77;;;;;;;;;;5087924;28;20028;-69
2022/01/17 13:03:12;;;;;;;4.03;1.80;;;;;;;;;;5046576;28;20074;-68
2022/01/17 13:05:39;;;;;;;1.48;1.38;;;;;;;;;;5068968;28;20526;-69
2022/01/17 13:08:05;;;;;;;1.02;0.88;;;;;;;;;;5063359;28;20047;-68
2022/01/17 13:10:31;;;;;;;1.80;1.35;;;;;;;;;;5086011;28;20101;-72
2022/01/17 13:13:00;;;;;;;0.68;0.68;;;;;;;;;;5068790;28;20028;-70
2022/01/17 13:15:26;;;;;;;1.38;1.23;;;;;;;;;;5069256;28;20123;-68
2022/01/17 13:17:52;;;;;;;2.50;0.95;;;;;;;;;;5085235;28;20556;-69
2022/01/17 13:20:19;;;;;;;0.77;0.70;;;;;;;;;;5088958;28;20040;-70
2022/01/17 13:22:59;;;;;;;0.50;0.50;;;;;;;;;;5072033;28;20050;-69
2022/01/17 13:25:26;;;;;;;0.20;0.20;;;;;;;;;;5073058;28;20483;-70
2022/01/17 13:27:53;;;;;;;0.55;0.55;;;;;;;;;;5089082;28;20036;-69
2022/01/17 13:30:19;;;;;;;1.27;1.08;;;;;;;;;;5071446;28;20391;-69
2022/01/17 13:32:45;;;;;;;0.65;0.65;;;;;;;;;;5088774;28;20028;-69
2022/01/17 13:35:13;;;;;;;0.68;0.68;;;;;;;;;;5072789;28;20060;-69
2022/01/17 13:37:40;;;;;;;6.93;2.80;;;;;;;;;;5088124;28;20032;-70
2022/01/17 13:40:19;;;;;;;2.28;1.65;;;;;;;;;;5087202;28;20042;-70
2022/01/17 13:42:44;;;;;;;;;;;;;;;;;;5087242;28;20032;-70
2022/01/17 13:45:10;;;;;;;2.90;2.13;;;;;;;;;;5088285;28;19923;-67
2022/01/17 13:47:35;;;;;;;1.17;0.68;;;;;;;;;;5087376;28;20036;-70
2022/01/17 13:50:02;;;;;;;0.50;0.50;;;;;;;;;;5088606;28;20118;-70
2022/01/17 13:52:28;;;;;;;0.60;0.52;;;;;;;;;;5086965;28;20059;-71
2022/01/17 13:54:54;;;;;;;0.60;0.60;;;;;;;;;;5088547;28;20055;-69
2022/01/17 13:57:27;;;;;;;0.50;0.50;;;;;;;;;;5090033;28;20207;-69
2022/01/17 13:59:56;;;;;;;0.60;0.60;;;;;;;;;;5071671;28;20073;-69
2022/01/17 14:02:24;;;;;;;;;;;;;;;;;;5049655;28;20033;-71
2022/01/17 14:04:50;;;;;;;0.52;0.52;;;;;;;;;;5083473;28;20010;-70
2022/01/17 14:07:26;;;;;;;0.50;0.50;;;;;;;;;;5039749;28;20132;-69
2022/01/17 14:09:51;;;;;;;0.30;0.30;;;;;;;;;;5071414;28;20057;-70
2022/01/17 14:12:17;;;;;;;0.60;0.60;;;;;;;;;;5072240;28;20028;-70
2022/01/17 14:14:50;;;;;;;1.42;0.52;;;;;;;;;;5088360;28;20028;-71
2022/01/17 14:17:29;;;;;;;1.08;0.73;;;;;;;;;;5066334;28;20050;-67
2022/01/17 14:20:08;;;;;;;0.57;0.57;;;;;;;;;;5088847;28;20032;-69
2022/01/17 14:22:44;;;;;;;1.43;1.33;;;;;;;;;;5088633;28;20489;-70
2022/01/17 14:25:21;;;;;;;2.38;1.65;;;;;;;;;;5089060;28;20353;-69
2022/01/17 14:27:56;;;;;;;2.30;1.55;;;;;;;;;;5072397;28;20051;-69
2022/01/17 14:30:26;;;;;;;0.77;0.77;;;;;;;;;;5090344;28;20968;-71
2022/01/17 14:33:16;;;;;;;1.25;1.08;;;;;;;;;;5088068;28;20394;-70
2022/01/17 14:36:01;;;;;;;0.30;0.30;;;;;;;;;;5088886;28;20036;-70
2022/01/17 14:38:29;;;;;;;0.40;0.40;;;;;;;;;;5090020;28;20070;-71
2022/01/17 14:40:55;;;;;;;4.22;3.90;;;;;;;;;;5089786;28;20047;-68
2022/01/17 14:43:28;;;;;;;0.40;0.40;;;;;;;;;;5090474;28;20415;-68
2022/01/17 14:46:05;;;;;;;3.75;0.77;;;;;;;;;;5072137;28;20058;-69
2022/01/17 14:48:49;;;;;;;0.98;0.73;;;;;;;;;;5071646;28;20072;-69
2022/01/17 14:51:20;;;;;;;0.30;0.30;;;;;;;;;;5072198;28;20064;-69
2022/01/17 14:53:50;;;;;;;0.52;0.52;;;;;;;;;;5072079;28;20040;-69
2022/01/17 15:01:55;;;;;;;0.20;0.20;;;;;;;;;;5089721;28;20047;-71
2022/01/17 15:04:21;;;;;;;0.38;0.38;;;;;;;;;;5071596;28;20407;-69
2022/01/17 15:06:47;;;;;;;0.75;0.75;;;;;;;;;;5089304;28;20035;-68
2022/01/17 15:09:13;;;;;;;0.20;0.20;;;;;;;;;;5071653;28;20560;-68
2022/01/17 15:11:40;;;;;;;0.30;0.30;;;;;;;;;;5071247;28;20106;-68
2022/01/17 15:14:07;;;;;;;0.20;0.20;;;;;;;;;;5071773;28;20475;-68
2022/01/17 15:16:40;;;;;;;0.30;0.30;;;;;;;;;;5072698;28;20035;-71
2022/01/17 15:19:06;;;;;;;0.20;0.20;;;;;;;;;;5088310;28;20040;-69